createdAt,value
2019-04-20T00:00:00.746Z,976.14
2019-04-20T00:00:56.406Z,976.15
2019-04-20T00:01:56.984Z,976.15
2019-04-20T00:02:57.084Z,976.17
2019-04-20T00:03:55.571Z,976.15
2019-04-20T00:04:54.990Z,976.11
2019-04-20T00:05:55.169Z,976.11
2019-04-20T00:06:56.029Z,976.13
2019-04-20T00:07:55.723Z,976.13
2019-04-20T00:08:59.679Z,976.11
2019-04-20T00:10:01.043Z,976.18
2019-04-20T00:11:02.317Z,976.14
2019-04-20T00:12:08.614Z,976.17
2019-04-20T00:13:30.734Z,976.13
2019-04-20T00:14:26.042Z,976.16
2019-04-20T00:15:20.098Z,976.13
2019-04-20T00:16:21.029Z,976.13
2019-04-20T00:17:20.087Z,976.15
2019-04-20T00:18:21.072Z,976.13
2019-04-20T00:19:25.188Z,976.2
2019-04-20T00:20:24.529Z,976.17
2019-04-20T00:21:20.844Z,976.19
2019-04-20T00:22:23.479Z,976.14
2019-04-20T00:23:26.805Z,976.15
2019-04-20T00:24:25.596Z,976.11
2019-04-20T00:25:22.155Z,976.15
2019-04-20T00:29:24.731Z,976.1
2019-04-20T00:31:23.134Z,976.14
2019-04-20T00:32:49.880Z,976.15
2019-04-20T00:34:15.444Z,976.12
2019-04-20T00:35:08.315Z,976.11
2019-04-20T00:36:08.812Z,976.17
2019-04-20T00:37:08.791Z,976.15
2019-04-20T00:38:08.284Z,976.17
2019-04-20T00:39:11.362Z,976.11
2019-04-20T00:40:08.261Z,976.13
2019-04-20T00:41:11.771Z,976.15
2019-04-20T00:42:11.582Z,976.08
2019-04-20T00:43:08.707Z,976.07
2019-04-20T00:44:12.923Z,976.12
2019-04-20T00:45:15.829Z,976.09
2019-04-20T00:46:16.470Z,976.08
2019-04-20T00:47:45.300Z,976.1
2019-04-20T00:48:58.897Z,976.1
2019-04-20T00:50:59.140Z,976.08
2019-04-20T00:53:06.607Z,976.1
2019-04-20T00:53:58.562Z,976.06
2019-04-20T00:54:55.996Z,976.07
2019-04-20T00:55:57.095Z,976.07
2019-04-20T00:57:09.179Z,976.07
2019-04-20T00:58:19.960Z,976.06
2019-04-20T00:59:55.103Z,976.07
2019-04-20T01:02:12.449Z,976.05
2019-04-20T01:03:49.317Z,976.06
2019-04-20T01:06:16.107Z,976.02
2019-04-20T01:07:41.891Z,976.06
2019-04-20T01:08:34.014Z,976.03
2019-04-20T01:09:33.295Z,976.06
2019-04-20T01:10:38.161Z,976.06
2019-04-20T01:11:37.498Z,976.05
2019-04-20T01:12:36.534Z,976.05
2019-04-20T01:13:41.985Z,976.13
2019-04-20T01:14:40.468Z,976.11
2019-04-20T01:15:42.680Z,976.06
2019-04-20T01:16:43.865Z,976.06
2019-04-20T01:17:37.754Z,976.09
2019-04-20T01:18:37.017Z,976.1
2019-04-20T01:19:37.011Z,976.06
2019-04-20T01:20:37.004Z,976.04
2019-04-20T01:21:38.268Z,976.06
2019-04-20T01:22:44.226Z,976.05
2019-04-20T01:23:42.796Z,976.07
2019-04-20T01:24:40.330Z,976.07
2019-04-20T01:25:40.859Z,976.07
2019-04-20T01:26:43.286Z,976.07
2019-04-20T01:27:47.343Z,976.08
2019-04-20T01:29:35.475Z,976.07
2019-04-20T01:30:39.433Z,976.1
2019-04-20T01:32:04.293Z,976.12
2019-04-20T01:33:42.258Z,976.1
2019-04-20T01:35:04.385Z,976.15
2019-04-20T01:37:09.161Z,976.05
2019-04-20T01:38:56.133Z,976.11
2019-04-20T01:39:55.780Z,976.13
2019-04-20T01:40:52.736Z,976.17
2019-04-20T01:41:52.401Z,976.14
2019-04-20T01:42:53.197Z,976.17
2019-04-20T01:43:52.390Z,976.15
2019-04-20T01:44:55.006Z,976.18
2019-04-20T01:46:00.140Z,976.15
2019-04-20T01:46:56.814Z,976.18
2019-04-20T01:47:54.795Z,976.15
2019-04-20T01:48:52.611Z,976.19
2019-04-20T01:49:57.385Z,976.21
2019-04-20T01:51:02.077Z,976.2
2019-04-20T01:52:03.655Z,976.23
2019-04-20T01:53:20.978Z,976.21
2019-04-20T01:55:11.252Z,976.21
2019-04-20T01:56:51.876Z,976.26
2019-04-20T01:58:17.195Z,976.27
2019-04-20T02:00:00.448Z,976.29
2019-04-20T02:00:54.733Z,976.25
2019-04-20T02:01:59.013Z,976.28
2019-04-20T02:02:56.967Z,976.31
2019-04-20T02:03:55.254Z,976.3
2019-04-20T02:04:54.081Z,976.3
2019-04-20T02:05:58.840Z,976.29
2019-04-20T02:06:56.714Z,976.3
2019-04-20T02:07:55.103Z,976.28
2019-04-20T02:08:57.246Z,976.27
2019-04-20T02:09:58.211Z,976.32
2019-04-20T02:10:57.389Z,976.25
2019-04-20T02:11:53.753Z,976.22
2019-04-20T02:12:57.671Z,976.25
2019-04-20T02:13:57.065Z,976.26
2019-04-20T02:14:57.475Z,976.24
2019-04-20T02:15:56.320Z,976.23
2019-04-20T02:17:03.121Z,976.26
2019-04-20T02:18:17.416Z,976.23
2019-04-20T02:19:59.643Z,976.23
2019-04-20T02:22:06.076Z,976.23
2019-04-20T02:23:43.760Z,976.29
2019-04-20T02:24:34.082Z,976.28
2019-04-20T02:25:34.429Z,976.28
2019-04-20T02:26:34.711Z,976.28
2019-04-20T02:27:41.517Z,976.26
2019-04-20T02:29:58.005Z,976.23
2019-04-20T02:36:50.634Z,976.27
2019-04-20T02:45:08.404Z,976.36
2019-04-20T02:51:52.192Z,976.33
2019-04-20T02:55:00.139Z,976.34
2019-04-20T02:58:49.738Z,976.3
2019-04-20T03:01:49.993Z,976.3
2019-04-20T03:03:27.528Z,976.33
2019-04-20T03:04:28.846Z,976.31
2019-04-20T03:05:45.823Z,976.32
2019-04-20T03:07:30.253Z,976.31
2019-04-20T03:09:43.236Z,976.32
2019-04-20T03:12:23.212Z,976.3
2019-04-20T03:14:30.137Z,976.31
2019-04-20T03:16:34.430Z,976.31
2019-04-20T03:18:53.223Z,976.36
2019-04-20T03:20:51.760Z,976.35
2019-04-20T03:23:49.810Z,976.32
2019-04-20T03:26:40.040Z,976.39
2019-04-20T03:28:49.868Z,976.36
2019-04-20T03:31:28.803Z,976.37
2019-04-20T03:37:36.172Z,976.33
2019-04-20T03:39:40.282Z,976.38
2019-04-20T03:41:19.241Z,976.4
2019-04-20T03:42:10.751Z,976.41
2019-04-20T03:43:09.849Z,976.39
2019-04-20T03:44:12.511Z,976.42
2019-04-20T03:45:12.785Z,976.42
2019-04-20T03:46:12.535Z,976.4
2019-04-20T03:47:13.232Z,976.42
2019-04-20T03:48:54.502Z,976.44
2019-04-20T03:51:12.519Z,976.41
2019-04-20T03:53:34.188Z,976.43
2019-04-20T03:55:25.361Z,976.42
2019-04-20T03:57:40.289Z,976.41
2019-04-20T03:59:41.113Z,976.41
2019-04-20T04:02:21.619Z,976.38
2019-04-20T04:04:49.106Z,976.42
2019-04-20T04:06:33.248Z,976.39
2019-04-20T04:07:32.189Z,976.42
2019-04-20T04:08:41.200Z,976.43
2019-04-20T04:10:15.665Z,976.37
2019-04-20T04:12:03.163Z,976.4
2019-04-20T04:12:51.376Z,976.4
2019-04-20T04:13:50.362Z,976.39
2019-04-20T04:14:49.787Z,976.34
2019-04-20T04:15:55.472Z,976.36
2019-04-20T04:16:54.660Z,976.36
2019-04-20T04:17:50.393Z,976.37
2019-04-20T04:19:01.296Z,976.31
2019-04-20T04:19:59.918Z,976.34
2019-04-20T04:20:59.965Z,976.36
2019-04-20T04:22:20.976Z,976.34
2019-04-20T04:24:16.869Z,976.36
2019-04-20T04:25:53.012Z,976.37
2019-04-20T04:27:40.019Z,976.4
2019-04-20T04:29:41.736Z,976.39
2019-04-20T04:32:00.976Z,976.4
2019-04-20T04:35:05.029Z,976.47
2019-04-20T04:36:49.646Z,976.49
2019-04-20T04:38:56.893Z,976.51
2019-04-20T04:43:53.161Z,976.55
2019-04-20T04:45:07.448Z,976.56
2019-04-20T04:46:02.058Z,976.58
2019-04-20T04:47:05.098Z,976.6
2019-04-20T04:48:02.088Z,976.62
2019-04-20T04:49:09.467Z,976.61
2019-04-20T04:50:09.470Z,976.62
2019-04-20T04:51:08.912Z,976.59
2019-04-20T04:52:10.300Z,976.6
2019-04-20T04:53:22.598Z,976.62
2019-04-20T04:54:43.937Z,976.61
2019-04-20T04:55:58.067Z,976.58
2019-04-20T04:56:52.473Z,976.62
2019-04-20T04:57:51.584Z,976.64
2019-04-20T04:58:51.700Z,976.64
2019-04-20T04:59:51.162Z,976.64
2019-04-20T05:00:51.533Z,976.66
2019-04-20T05:01:53.784Z,976.64
2019-04-20T05:02:55.391Z,976.66
2019-04-20T05:05:09.933Z,976.68
2019-04-20T05:07:07.126Z,976.68
2019-04-20T05:08:28.941Z,976.68
2019-04-20T05:09:23.744Z,976.68
2019-04-20T05:10:22.442Z,976.66
2019-04-20T05:11:23.679Z,976.71
2019-04-20T05:12:26.231Z,976.68
2019-04-20T05:13:26.467Z,976.68
2019-04-20T05:14:29.156Z,976.66
2019-04-20T05:16:03.340Z,976.71
2019-04-20T05:18:05.629Z,976.74
2019-04-20T05:20:26.769Z,976.76
2019-04-20T05:22:50.673Z,976.78
2019-04-20T05:24:28.708Z,976.76
2019-04-20T05:26:55.292Z,976.73
2019-04-20T05:28:42.804Z,976.74
2019-04-20T05:29:35.941Z,976.75
2019-04-20T05:30:40.106Z,976.73
2019-04-20T05:31:40.302Z,976.72
2019-04-20T05:32:44.496Z,976.73
2019-04-20T05:34:19.802Z,976.74
2019-04-20T05:36:41.138Z,976.72
2019-04-20T05:41:30.841Z,976.72
2019-04-20T05:43:41.007Z,976.7
2019-04-20T05:45:41.218Z,976.71
2019-04-20T05:47:47.504Z,976.74
2019-04-20T05:50:00.610Z,976.72
2019-04-20T05:52:15.040Z,976.69
2019-04-20T05:54:56.019Z,976.69
2019-04-20T05:57:20.919Z,976.75
2019-04-20T05:59:40.768Z,976.71
2019-04-20T06:02:09.523Z,976.73
2019-04-20T06:04:45.921Z,976.79
2019-04-20T06:07:20.819Z,976.79
2019-04-20T06:09:53.947Z,976.78
2019-04-20T06:12:31.289Z,976.8
2019-04-20T06:14:09.928Z,976.8
2019-04-20T06:15:52.935Z,976.83
2019-04-20T06:18:06.112Z,976.72
2019-04-20T06:20:47.506Z,976.73
2019-04-20T06:23:38.350Z,976.75
2019-04-20T06:26:53.281Z,976.74
2019-04-20T06:28:58.080Z,976.78
2019-04-20T06:30:43.998Z,976.76
2019-04-20T06:33:30.449Z,976.77
2019-04-20T06:36:31.991Z,976.77
2019-04-20T06:39:19.819Z,976.76
2019-04-20T06:42:17.443Z,976.75
2019-04-20T06:44:42.515Z,976.77
2019-04-20T06:47:29.035Z,976.76
2019-04-20T06:50:17.139Z,976.74
2019-04-20T06:52:36.577Z,976.75
2019-04-20T06:54:37.913Z,976.72
2019-04-20T06:57:09.725Z,976.7
2019-04-20T07:00:07.059Z,976.7
2019-04-20T07:02:41.103Z,976.72
2019-04-20T07:05:25.644Z,976.72
2019-04-20T07:08:08.071Z,976.68
2019-04-20T07:11:03.639Z,976.68
2019-04-20T07:13:11.396Z,976.69
2019-04-20T07:14:27.076Z,976.75
2019-04-20T07:16:01.108Z,976.74
2019-04-20T07:18:42.242Z,976.79
2019-04-20T07:20:58.904Z,976.74
2019-04-20T07:24:03.006Z,976.76
2019-04-20T07:26:55.309Z,976.73
2019-04-20T07:29:33.119Z,976.75
2019-04-20T07:31:48.337Z,976.72
2019-04-20T07:34:10.165Z,976.66
2019-04-20T07:36:32.089Z,976.69
2019-04-20T07:39:32.592Z,976.67
2019-04-20T07:42:07.861Z,976.69
2019-04-20T07:44:54.663Z,976.67
2019-04-20T07:48:10.705Z,976.73
2019-04-20T07:50:12.761Z,976.67
2019-04-20T07:51:26.412Z,976.65
2019-04-20T07:52:33.652Z,976.68
2019-04-20T07:54:35.336Z,976.65
2019-04-20T07:57:24.106Z,976.66
2019-04-20T07:58:47.829Z,976.65
2019-04-20T08:00:41.031Z,976.66
2019-04-20T08:03:27.984Z,976.66
2019-04-20T08:05:33.237Z,976.68
2019-04-20T08:06:36.617Z,976.65
2019-04-20T08:07:38.919Z,976.63
2019-04-20T08:09:14.377Z,976.66
2019-04-20T08:10:28.508Z,976.61
2019-04-20T08:13:09.090Z,976.6
2019-04-20T08:16:12.875Z,976.6
2019-04-20T08:19:04.006Z,976.57
2019-04-20T08:21:22.637Z,976.57
2019-04-20T08:23:48.693Z,976.55
2019-04-20T08:25:45.324Z,976.54
2019-04-20T08:26:51.797Z,976.54
2019-04-20T08:27:44.761Z,976.54
2019-04-20T08:28:53.217Z,976.53
2019-04-20T08:30:29.025Z,976.53
2019-04-20T08:32:22.703Z,976.54
2019-04-20T08:34:41.439Z,976.48
2019-04-20T08:37:05.800Z,976.5
2019-04-20T08:40:11.797Z,976.53
2019-04-20T08:42:00.075Z,976.49
2019-04-20T08:45:06.957Z,976.45
2019-04-20T08:47:49.729Z,976.46
2019-04-20T08:50:26.785Z,976.45
2019-04-20T08:55:18.957Z,976.41
2019-04-20T08:56:38.674Z,976.36
2019-04-20T08:57:31.611Z,976.37
2019-04-20T08:58:31.614Z,976.37
2019-04-20T08:59:33.715Z,976.38
2019-04-20T09:00:39.422Z,976.31
2019-04-20T09:01:34.057Z,976.32
2019-04-20T09:02:32.627Z,976.32
2019-04-20T09:03:43.643Z,976.31
2019-04-20T09:04:47.754Z,976.3
2019-04-20T09:06:03.142Z,976.31
2019-04-20T09:07:18.531Z,976.31
2019-04-20T09:08:18.712Z,976.27
2019-04-20T09:10:33.971Z,976.29
2019-04-20T09:12:44.733Z,976.27
2019-04-20T09:13:54.929Z,976.3
2019-04-20T09:14:50.766Z,976.23
2019-04-20T09:15:51.253Z,976.22
2019-04-20T09:16:53.343Z,976.23
2019-04-20T09:17:54.699Z,976.21
2019-04-20T09:18:57.362Z,976.23
2019-04-20T09:19:58.492Z,976.24
2019-04-20T09:21:08.412Z,976.2
2019-04-20T09:22:33.905Z,976.25
2019-04-20T09:24:19.576Z,976.21
2019-04-20T09:26:54.101Z,976.17
2019-04-20T09:28:11.438Z,976.14
2019-04-20T09:29:40.313Z,976.11
2019-04-20T09:31:19.740Z,976.1
2019-04-20T09:33:14.140Z,976.11
2019-04-20T09:35:29.636Z,976.14
2019-04-20T09:37:18.751Z,976.14
2019-04-20T09:39:08.295Z,976.14
2019-04-20T09:40:49.282Z,976.13
2019-04-20T09:42:04.686Z,976.13
2019-04-20T09:43:04.680Z,976.11
2019-04-20T09:44:04.722Z,976.11
2019-04-20T09:45:06.515Z,976.1
2019-04-20T09:46:07.120Z,976.09
2019-04-20T09:47:05.384Z,976.04
2019-04-20T09:48:11.179Z,976.07
2019-04-20T09:49:15.577Z,976.03
2019-04-20T09:50:52.919Z,976.01
2019-04-20T09:52:51.167Z,976.01
2019-04-20T09:54:25.371Z,975.96
2019-04-20T09:56:15.190Z,975.98
2019-04-20T09:58:12.206Z,975.95
2019-04-20T10:00:05.219Z,975.92
2019-04-20T10:01:40.096Z,975.87
2019-04-20T10:02:34.728Z,975.88
2019-04-20T10:03:31.526Z,975.93
2019-04-20T10:04:31.520Z,975.9
2019-04-20T10:05:31.563Z,975.88
2019-04-20T10:06:34.471Z,975.88
2019-04-20T10:07:34.255Z,975.86
2019-04-20T10:08:33.895Z,975.87
2019-04-20T10:09:37.051Z,975.86
2019-04-20T10:10:38.115Z,975.87
2019-04-20T10:11:31.922Z,975.87
2019-04-20T10:12:31.617Z,975.86
2019-04-20T10:13:32.180Z,975.84
2019-04-20T10:14:31.472Z,975.86
2019-04-20T10:15:32.923Z,975.82
2019-04-20T10:16:31.575Z,975.78
2019-04-20T10:17:33.447Z,975.8
2019-04-20T10:18:33.972Z,975.8
2019-04-20T10:19:34.470Z,975.77
2019-04-20T10:20:34.519Z,975.75
2019-04-20T10:21:31.859Z,975.73
2019-04-20T10:22:32.551Z,975.73
2019-04-20T10:23:32.454Z,975.74
2019-04-20T10:24:32.654Z,975.78
2019-04-20T10:25:32.793Z,975.75
2019-04-20T10:26:32.380Z,975.74
2019-04-20T10:27:32.609Z,975.7
2019-04-20T10:28:31.784Z,975.68
2019-04-20T10:29:31.422Z,975.68
2019-04-20T10:30:32.524Z,975.7
2019-04-20T10:31:35.498Z,975.69
2019-04-20T10:32:37.265Z,975.66
2019-04-20T10:33:31.426Z,975.66
2019-04-20T10:34:32.621Z,975.69
2019-04-20T10:35:31.718Z,975.73
2019-04-20T10:36:31.355Z,975.72
2019-04-20T10:37:31.566Z,975.68
2019-04-20T10:38:34.172Z,975.67
2019-04-20T10:39:31.337Z,975.67
2019-04-20T10:40:43.176Z,975.7
2019-04-20T10:41:52.533Z,975.68
2019-04-20T10:42:48.527Z,975.7
2019-04-20T10:43:48.973Z,975.74
2019-04-20T10:44:48.517Z,975.72
2019-04-20T10:45:48.823Z,975.69
2019-04-20T10:46:49.126Z,975.66
2019-04-20T10:47:48.503Z,975.68
2019-04-20T10:48:51.492Z,975.7
2019-04-20T10:49:49.261Z,975.66
2019-04-20T10:50:49.276Z,975.68
2019-04-20T10:51:49.534Z,975.67
2019-04-20T10:52:49.872Z,975.67
2019-04-20T10:53:48.688Z,975.66
2019-04-20T10:54:48.464Z,975.63
2019-04-20T10:55:49.461Z,975.64
2019-04-20T10:56:49.471Z,975.61
2019-04-20T10:57:49.252Z,975.63
2019-04-20T10:58:49.625Z,975.63
2019-04-20T10:59:49.546Z,975.6
2019-04-20T11:00:50.039Z,975.66
2019-04-20T11:01:49.647Z,975.65
2019-04-20T11:02:49.486Z,975.62
2019-04-20T11:03:48.417Z,975.59
2019-04-20T11:04:48.540Z,975.58
2019-04-20T11:05:48.950Z,975.59
2019-04-20T11:06:48.401Z,975.57
2019-04-20T11:07:48.500Z,975.55
2019-04-20T11:08:48.692Z,975.55
2019-04-20T11:10:00.509Z,975.6
2019-04-20T11:11:03.127Z,975.5
2019-04-20T11:11:52.383Z,975.53
2019-04-20T11:12:52.486Z,975.49
2019-04-20T11:13:51.507Z,975.57
2019-04-20T11:14:52.300Z,975.57
2019-04-20T11:15:52.630Z,975.54
2019-04-20T11:16:51.491Z,975.53
2019-04-20T11:17:51.523Z,975.48
2019-04-20T11:18:51.481Z,975.5
2019-04-20T11:19:51.597Z,975.49
2019-04-20T11:20:51.469Z,975.48
2019-04-20T11:21:52.353Z,975.46
2019-04-20T11:22:52.632Z,975.44
2019-04-20T11:23:52.069Z,975.42
2019-04-20T11:24:52.355Z,975.42
2019-04-20T11:25:52.462Z,975.42
2019-04-20T11:26:52.064Z,975.42
2019-04-20T11:27:52.251Z,975.43
2019-04-20T11:28:52.464Z,975.44
2019-04-20T11:29:51.893Z,975.41
2019-04-20T11:30:52.131Z,975.42
2019-04-20T11:31:54.386Z,975.42
2019-04-20T11:32:51.900Z,975.36
2019-04-20T11:33:52.229Z,975.36
2019-04-20T11:34:51.408Z,975.32
2019-04-20T11:35:51.581Z,975.29
2019-04-20T11:36:51.387Z,975.31
2019-04-20T11:37:51.381Z,975.29
2019-04-20T11:38:51.377Z,975.25
2019-04-20T11:39:52.587Z,975.28
2019-04-20T11:41:03.604Z,975.29
2019-04-20T11:41:51.722Z,975.28
2019-04-20T11:42:51.356Z,975.21
2019-04-20T11:43:51.561Z,975.24
2019-04-20T11:44:51.346Z,975.23
2019-04-20T11:45:51.353Z,975.26
2019-04-20T11:46:52.518Z,975.27
2019-04-20T11:47:51.614Z,975.22
2019-04-20T11:48:51.793Z,975.27
2019-04-20T11:49:51.396Z,975.22
2019-04-20T11:50:51.624Z,975.21
2019-04-20T11:51:51.808Z,975.22
2019-04-20T11:52:51.560Z,975.25
2019-04-20T11:53:52.215Z,975.16
2019-04-20T11:54:52.500Z,975.15
2019-04-20T11:55:52.081Z,975.14
2019-04-20T11:56:51.312Z,975.16
2019-04-20T11:57:51.381Z,975.13
2019-04-20T11:58:51.276Z,975.11
2019-04-20T11:59:51.271Z,975.12
2019-04-20T12:00:59.298Z,975.1
2019-04-20T12:01:57.051Z,975.1
2019-04-20T12:02:54.119Z,975.08
2019-04-20T12:04:00.169Z,975.03
2019-04-20T12:05:20.920Z,975.02
2019-04-20T12:06:10.681Z,974.99
2019-04-20T12:07:11.075Z,974.98
2019-04-20T12:08:11.157Z,975.03
2019-04-20T12:09:10.939Z,975.01
2019-04-20T12:10:15.616Z,974.95
2019-04-20T12:11:22.546Z,975
2019-04-20T12:12:38.869Z,974.94
2019-04-20T12:13:30.953Z,974.98
2019-04-20T12:14:30.544Z,975.01
2019-04-20T12:15:33.488Z,974.95
2019-04-20T12:16:31.869Z,974.94
2019-04-20T12:17:31.428Z,974.95
2019-04-20T12:18:31.663Z,974.97
2019-04-20T12:19:31.150Z,974.93
2019-04-20T12:20:30.462Z,974.95
2019-04-20T12:21:30.706Z,974.9
2019-04-20T12:22:30.475Z,974.91
2019-04-20T12:23:30.697Z,974.92
2019-04-20T12:24:31.223Z,974.9
2019-04-20T12:25:33.203Z,974.92
2019-04-20T12:26:30.996Z,974.91
2019-04-20T12:27:30.534Z,974.89
2019-04-20T12:28:31.570Z,974.95
2019-04-20T12:29:30.414Z,974.93
2019-04-20T12:30:30.408Z,974.89
2019-04-20T12:31:31.476Z,974.92
2019-04-20T12:32:35.075Z,974.9
2019-04-20T12:33:30.721Z,974.92
2019-04-20T12:34:30.743Z,974.93
2019-04-20T12:35:30.383Z,974.9
2019-04-20T12:36:30.378Z,974.9
2019-04-20T12:37:31.281Z,974.94
2019-04-20T12:38:30.770Z,974.95
2019-04-20T12:39:31.192Z,974.93
2019-04-20T12:40:30.358Z,974.92
2019-04-20T12:41:37.073Z,974.9
2019-04-20T12:42:30.833Z,974.91
2019-04-20T12:43:31.761Z,974.89
2019-04-20T12:44:30.336Z,974.89
2019-04-20T12:45:31.444Z,974.84
2019-04-20T12:46:30.327Z,974.8
2019-04-20T12:47:30.322Z,974.81
2019-04-20T12:48:31.460Z,974.8
2019-04-20T12:49:31.620Z,974.78
2019-04-20T12:50:30.308Z,974.83
2019-04-20T12:51:33.435Z,974.83
2019-04-20T12:52:30.459Z,974.79
2019-04-20T12:53:30.700Z,974.81
2019-04-20T12:54:30.286Z,974.78
2019-04-20T12:55:30.573Z,974.78
2019-04-20T12:56:30.631Z,974.76
2019-04-20T12:57:30.272Z,974.76
2019-04-20T12:58:30.609Z,974.79
2019-04-20T12:59:31.560Z,974.74
2019-04-20T13:00:30.257Z,974.72
2019-04-20T13:01:30.283Z,974.74
2019-04-20T13:02:31.444Z,974.74
2019-04-20T13:03:30.242Z,974.74
2019-04-20T13:04:30.248Z,974.72
2019-04-20T13:05:30.233Z,974.69
2019-04-20T13:06:30.240Z,974.65
2019-04-20T13:07:31.459Z,974.66
2019-04-20T13:08:34.549Z,974.68
2019-04-20T13:09:30.584Z,974.66
2019-04-20T13:10:31.618Z,974.63
2019-04-20T13:11:30.934Z,974.62
2019-04-20T13:12:30.453Z,974.59
2019-04-20T13:13:30.479Z,974.58
2019-04-20T13:14:30.565Z,974.54
2019-04-20T13:15:30.184Z,974.55
2019-04-20T13:16:30.415Z,974.61
2019-04-20T13:17:30.503Z,974.47
2019-04-20T13:18:30.169Z,974.54
2019-04-20T13:19:31.152Z,974.51
2019-04-20T13:20:30.157Z,974.53
2019-04-20T13:21:31.126Z,974.55
2019-04-20T13:22:30.848Z,974.53
2019-04-20T13:23:30.997Z,974.53
2019-04-20T13:24:32.198Z,974.49
2019-04-20T13:25:30.816Z,974.44
2019-04-20T13:26:30.950Z,974.47
2019-04-20T13:27:31.122Z,974.47
2019-04-20T13:28:30.704Z,974.47
2019-04-20T13:29:30.969Z,974.42
2019-04-20T13:30:30.150Z,974.4
2019-04-20T13:31:30.103Z,974.4
2019-04-20T13:32:30.097Z,974.39
2019-04-20T13:33:31.380Z,974.36
2019-04-20T13:34:30.089Z,974.36
2019-04-20T13:35:30.168Z,974.32
2019-04-20T13:36:30.336Z,974.31
2019-04-20T13:37:30.073Z,974.4
2019-04-20T13:38:30.250Z,974.3
2019-04-20T13:39:30.917Z,974.29
2019-04-20T13:40:31.132Z,974.3
2019-04-20T13:41:30.053Z,974.3
2019-04-20T13:42:31.749Z,974.27
2019-04-20T13:43:30.076Z,974.28
2019-04-20T13:44:30.657Z,974.22
2019-04-20T13:45:30.933Z,974.26
2019-04-20T13:46:31.238Z,974.23
2019-04-20T13:47:30.536Z,974.29
2019-04-20T13:48:31.007Z,974.22
2019-04-20T13:49:31.217Z,974.23
2019-04-20T13:50:30.009Z,974.18
2019-04-20T13:51:30.818Z,974.2
2019-04-20T13:52:30.950Z,974.23
2019-04-20T13:53:29.998Z,974.19
2019-04-20T13:54:29.990Z,974.2
2019-04-20T13:55:30.233Z,974.16
2019-04-20T13:56:30.152Z,974.2
2019-04-20T13:57:29.999Z,974.23
2019-04-20T13:58:29.970Z,974.19
2019-04-20T13:59:30.080Z,974.18
2019-04-20T14:00:29.960Z,974.13
2019-04-20T14:01:30.647Z,974.11
2019-04-20T14:02:30.885Z,974.13
2019-04-20T14:03:30.173Z,974.11
2019-04-20T14:04:30.669Z,974.09
2019-04-20T14:05:30.755Z,974.02
2019-04-20T14:06:29.930Z,974.04
2019-04-20T14:07:31.310Z,974.03
2019-04-20T14:08:29.921Z,974.04
2019-04-20T14:09:29.916Z,974.08
2019-04-20T14:10:30.983Z,973.99
2019-04-20T14:11:29.906Z,973.98
2019-04-20T14:12:35.698Z,973.96
2019-04-20T14:13:36.746Z,974
2019-04-20T14:14:31.014Z,973.97
2019-04-20T14:15:31.121Z,973.95
2019-04-20T14:16:29.884Z,973.99
2019-04-20T14:17:30.798Z,973.87
2019-04-20T14:18:31.044Z,973.88
2019-04-20T14:19:31.301Z,973.88
2019-04-20T14:20:29.911Z,973.87
2019-04-20T14:21:30.189Z,973.91
2019-04-20T14:22:31.239Z,973.87
2019-04-20T14:23:30.887Z,973.82
2019-04-20T14:24:30.833Z,973.82
2019-04-20T14:25:31.159Z,973.81
2019-04-20T14:26:30.652Z,973.84
2019-04-20T14:27:30.818Z,973.83
2019-04-20T14:28:31.159Z,973.81
2019-04-20T14:29:30.626Z,973.77
2019-04-20T14:30:30.919Z,973.75
2019-04-20T14:31:30.014Z,973.73
2019-04-20T14:32:29.807Z,973.73
2019-04-20T14:33:30.718Z,973.72
2019-04-20T14:34:31.000Z,973.68
2019-04-20T14:35:29.795Z,973.66
2019-04-20T14:36:30.772Z,973.65
2019-04-20T14:37:30.913Z,973.65
2019-04-20T14:38:30.648Z,973.61
2019-04-20T14:39:30.214Z,973.58
2019-04-20T14:40:30.318Z,973.59
2019-04-20T14:41:30.595Z,973.58
2019-04-20T14:42:36.137Z,973.58
2019-04-20T14:43:31.722Z,973.56
2019-04-20T14:44:29.922Z,973.53
2019-04-20T14:45:29.767Z,973.55
2019-04-20T14:46:29.764Z,973.56
2019-04-20T14:47:29.875Z,973.51
2019-04-20T14:48:30.961Z,973.58
2019-04-20T14:49:30.487Z,973.57
2019-04-20T14:50:29.902Z,973.53
2019-04-20T14:51:29.857Z,973.54
2019-04-20T14:52:29.755Z,973.49
2019-04-20T14:53:29.756Z,973.52
2019-04-20T14:54:29.753Z,973.52
2019-04-20T14:55:29.753Z,973.51
2019-04-20T14:56:29.760Z,973.49
2019-04-20T14:57:29.882Z,973.5
2019-04-20T14:58:29.751Z,973.47
2019-04-20T14:59:29.751Z,973.48
2019-04-20T15:00:29.875Z,973.44
2019-04-20T15:01:30.298Z,973.4
2019-04-20T15:02:30.135Z,973.41
2019-04-20T15:03:30.300Z,973.44
2019-04-20T15:04:30.573Z,973.4
2019-04-20T15:05:30.743Z,973.39
2019-04-20T15:06:29.838Z,973.37
2019-04-20T15:07:30.847Z,973.34
2019-04-20T15:08:30.371Z,973.32
2019-04-20T15:09:30.794Z,973.27
2019-04-20T15:10:30.956Z,973.31
2019-04-20T15:11:30.496Z,973.24
2019-04-20T15:12:38.669Z,973.27
2019-04-20T15:13:30.774Z,973.22
2019-04-20T15:14:29.755Z,973.21
2019-04-20T15:15:30.389Z,973.21
2019-04-20T15:16:30.721Z,973.2
2019-04-20T15:17:29.839Z,973.2
2019-04-20T15:18:29.758Z,973.21
2019-04-20T15:19:29.760Z,973.2
2019-04-20T15:20:29.804Z,973.2
2019-04-20T15:21:29.761Z,973.24
2019-04-20T15:22:29.763Z,973.23
2019-04-20T15:23:29.834Z,973.13
2019-04-20T15:24:29.764Z,973.14
2019-04-20T15:25:29.766Z,973.08
2019-04-20T15:26:30.705Z,973.14
2019-04-20T15:27:30.295Z,973.08
2019-04-20T15:28:30.286Z,973.09
2019-04-20T15:29:30.485Z,973.07
2019-04-20T15:30:29.957Z,973.05
2019-04-20T15:31:30.075Z,973.08
2019-04-20T15:32:31.199Z,973.09
2019-04-20T15:33:30.805Z,973.03
2019-04-20T15:34:30.888Z,973.07
2019-04-20T15:35:30.178Z,973.04
2019-04-20T15:36:29.769Z,973.03
2019-04-20T15:37:30.921Z,973.06
2019-04-20T15:38:31.219Z,973.04
2019-04-20T15:39:30.494Z,973.01
2019-04-20T15:40:31.017Z,973.03
2019-04-20T15:41:29.780Z,973.02
2019-04-20T15:42:29.765Z,973.01
2019-04-20T15:43:30.276Z,973
2019-04-20T15:44:31.322Z,973.02
2019-04-20T15:45:29.765Z,973.01
2019-04-20T15:46:31.596Z,973.03
2019-04-20T15:47:30.052Z,973.03
2019-04-20T15:48:30.087Z,973.05
2019-04-20T15:49:29.768Z,973.03
2019-04-20T15:50:29.906Z,973.05
2019-04-20T15:51:30.028Z,973
2019-04-20T15:52:36.638Z,973.02
2019-04-20T15:53:29.762Z,973.04
2019-04-20T15:54:29.761Z,973.05
2019-04-20T15:55:32.824Z,972.96
2019-04-20T15:56:29.760Z,972.96
2019-04-20T15:57:31.600Z,972.93
2019-04-20T15:58:30.205Z,972.91
2019-04-20T15:59:30.608Z,972.9
2019-04-20T16:00:29.762Z,972.91
2019-04-20T16:01:30.253Z,972.93
2019-04-20T16:02:29.752Z,972.93
2019-04-20T16:03:29.874Z,972.96
2019-04-20T16:04:34.079Z,972.97
2019-04-20T16:05:30.351Z,972.93
2019-04-20T16:06:29.750Z,972.93
2019-04-20T16:07:30.640Z,972.98
2019-04-20T16:08:30.227Z,972.96
2019-04-20T16:09:31.598Z,972.91
2019-04-20T16:10:30.798Z,972.89
2019-04-20T16:11:30.905Z,972.89
2019-04-20T16:12:30.968Z,972.91
2019-04-20T16:13:35.749Z,972.87
2019-04-20T16:14:31.173Z,972.89
2019-04-20T16:15:29.744Z,972.9
2019-04-20T16:16:29.986Z,972.89
2019-04-20T16:17:32.600Z,972.93
2019-04-20T16:18:30.720Z,972.88
2019-04-20T16:19:40.399Z,972.85
2019-04-20T16:20:43.384Z,972.89
2019-04-20T16:21:33.262Z,972.86
2019-04-20T16:22:30.876Z,972.86
2019-04-20T16:23:30.371Z,972.9
2019-04-20T16:24:32.349Z,972.85
2019-04-20T16:25:29.759Z,972.88
2019-04-20T16:26:29.725Z,972.87
2019-04-20T16:27:29.830Z,972.82
2019-04-20T16:28:29.829Z,972.81
2019-04-20T16:29:29.721Z,972.84
2019-04-20T16:30:29.842Z,972.83
2019-04-20T16:31:30.849Z,972.79
2019-04-20T16:32:30.347Z,972.82
2019-04-20T16:33:30.488Z,972.81
2019-04-20T16:34:29.714Z,972.78